createdAt,value
2022-11-04T00:01:09.699Z,8.67
2022-11-04T00:04:13.742Z,8.66
2022-11-04T00:07:34.370Z,8.69
2022-11-04T00:10:54.899Z,8.69
2022-11-04T00:13:58.191Z,8.67
2022-11-04T00:17:19.196Z,8.70
2022-11-04T00:20:40.257Z,8.69
2022-11-04T00:24:04.120Z,8.66
2022-11-04T00:27:25.006Z,8.59
2022-11-04T00:30:27.203Z,8.53
2022-11-04T00:33:36.300Z,8.53
2022-11-04T00:36:38.548Z,8.49
2022-11-04T00:39:47.369Z,8.46
2022-11-04T00:42:49.565Z,8.41
2022-11-04T00:45:51.714Z,8.36
2022-11-04T00:48:53.977Z,8.32
2022-11-04T00:51:56.227Z,8.28
2022-11-04T00:54:58.407Z,8.29
2022-11-04T00:58:00.583Z,8.31
2022-11-04T01:01:11.380Z,8.25
2022-11-04T01:04:13.874Z,8.21
2022-11-04T01:07:16.127Z,8.20
2022-11-04T01:10:18.307Z,8.22
2022-11-04T01:13:20.515Z,8.25
2022-11-04T01:16:23.652Z,8.38
2022-11-04T01:19:25.917Z,8.42
2022-11-04T01:22:28.093Z,8.50
2022-11-04T01:25:30.329Z,8.50
2022-11-04T01:28:32.686Z,8.46
2022-11-04T01:31:34.933Z,8.41
2022-11-04T01:34:42.435Z,8.44
2022-11-04T01:37:45.949Z,8.38
2022-11-04T01:40:48.097Z,8.46
2022-11-04T01:44:05.256Z,8.49
2022-11-04T01:47:16.810Z,8.39
2022-11-04T01:50:26.837Z,8.20
2022-11-04T01:53:33.948Z,8.01
2022-11-04T01:56:37.185Z,7.90
2022-11-04T01:59:40.938Z,7.81
2022-11-04T02:02:58.706Z,7.75
2022-11-04T02:06:02.889Z,7.78
2022-11-04T02:09:05.112Z,7.88
2022-11-04T02:12:26.084Z,7.90
2022-11-04T02:15:41.743Z,7.93
2022-11-04T02:18:55.207Z,8.04
2022-11-04T02:22:18.702Z,8.22
2022-11-04T02:25:54.075Z,8.01
2022-11-04T02:29:14.932Z,7.91
2022-11-04T02:32:25.301Z,7.93
2022-11-04T02:35:52.530Z,7.80
2022-11-04T02:39:06.434Z,7.81
2022-11-04T02:42:23.650Z,7.80
2022-11-04T02:45:42.541Z,7.90
2022-11-04T02:49:16.584Z,7.83
2022-11-04T02:52:41.637Z,7.80
2022-11-04T02:55:50.249Z,7.81
2022-11-04T02:58:57.323Z,7.80
2022-11-04T03:02:03.564Z,7.75
2022-11-04T03:05:09.334Z,7.75
2022-11-04T03:08:18.347Z,7.80
2022-11-04T03:11:23.515Z,7.91
2022-11-04T03:14:36.970Z,8.16
2022-11-04T03:17:58.202Z,8.32
2022-11-04T03:21:04.502Z,8.35
2022-11-04T03:24:06.838Z,8.32
2022-11-04T03:27:44.302Z,8.16
2022-11-04T03:30:49.580Z,8.01
2022-11-04T03:33:53.550Z,7.99
2022-11-04T03:36:56.616Z,8.08
2022-11-04T03:39:58.870Z,8.11
2022-11-04T03:43:08.066Z,8.01
2022-11-04T03:46:11.115Z,7.91
2022-11-04T03:49:14.322Z,7.84
2022-11-04T03:52:17.758Z,7.78
2022-11-04T03:55:20.101Z,7.77
2022-11-04T03:58:40.125Z,7.75
2022-11-04T04:01:55.269Z,7.67
2022-11-04T04:05:05.485Z,7.69
2022-11-04T04:08:39.720Z,7.66
2022-11-04T04:11:52.239Z,7.74
2022-11-04T04:15:06.614Z,7.63
2022-11-04T04:18:13.742Z,7.64
2022-11-04T04:21:21.428Z,7.52
2022-11-04T04:24:46.630Z,7.43
2022-11-04T04:27:51.412Z,7.30
2022-11-04T04:30:59.165Z,7.29
2022-11-04T04:34:03.064Z,7.27
2022-11-04T04:37:21.041Z,7.16
2022-11-04T04:40:47.128Z,7.16
2022-11-04T04:44:08.392Z,7.13
2022-11-04T04:47:20.054Z,7.11
2022-11-04T04:50:22.744Z,7.25
2022-11-04T04:53:24.907Z,7.22
2022-11-04T04:56:27.101Z,7.20
2022-11-04T04:59:29.249Z,7.29
2022-11-04T05:02:31.519Z,7.05
2022-11-04T05:05:33.789Z,7.23
2022-11-04T05:08:35.950Z,7.26
2022-11-04T05:11:38.134Z,7.22
2022-11-04T05:14:40.298Z,7.39
2022-11-04T05:17:42.637Z,7.36
2022-11-04T05:20:44.889Z,7.18
2022-11-04T05:23:47.034Z,7.11
2022-11-04T05:26:49.278Z,7.11
2022-11-04T05:29:51.435Z,7.08
2022-11-04T05:32:53.630Z,6.99
2022-11-04T05:35:55.809Z,7.03
2022-11-04T05:38:57.982Z,7.03
2022-11-04T05:42:01.037Z,7.08
2022-11-04T05:45:04.392Z,7.09
2022-11-04T05:48:06.584Z,7.06
2022-11-04T05:51:13.510Z,7.12
2022-11-04T05:54:15.666Z,7.18
2022-11-04T05:57:17.946Z,7.15
2022-11-04T06:00:20.592Z,7.19
2022-11-04T06:03:22.866Z,7.09
2022-11-04T06:06:27.072Z,6.98
2022-11-04T06:09:41.600Z,7.08
2022-11-04T06:12:43.878Z,7.06
2022-11-04T06:15:46.041Z,7.08
2022-11-04T06:18:48.327Z,7.06
2022-11-04T06:21:50.496Z,7.06
2022-11-04T06:24:52.712Z,7.06
2022-11-04T06:27:54.893Z,7.26
2022-11-04T06:31:02.099Z,7.50
2022-11-04T06:34:04.682Z,7.53
2022-11-04T06:37:07.526Z,7.57
2022-11-04T06:40:10.096Z,7.46
2022-11-04T06:43:15.142Z,7.64
2022-11-04T06:46:38.377Z,7.85
2022-11-04T06:49:43.238Z,7.85
2022-11-04T06:52:45.547Z,7.75
2022-11-04T06:56:03.514Z,7.66
2022-11-04T06:59:17.186Z,7.80
2022-11-04T07:02:22.104Z,8.09
2022-11-04T07:05:33.402Z,8.07
2022-11-04T07:08:35.738Z,7.97
2022-11-04T07:11:39.624Z,8.11
2022-11-04T07:14:47.664Z,8.15
2022-11-04T07:17:50.550Z,8.16
2022-11-04T07:20:53.148Z,8.32
2022-11-04T07:23:55.697Z,8.45
2022-11-04T07:26:58.393Z,8.67
2022-11-04T07:30:02.132Z,8.84
2022-11-04T07:33:07.403Z,8.84
2022-11-04T07:36:13.258Z,9.06
2022-11-04T07:39:15.671Z,9.07
2022-11-04T07:42:20.980Z,9.38
2022-11-04T07:45:28.975Z,9.49
2022-11-04T07:48:33.292Z,9.49
2022-11-04T07:51:40.725Z,9.45
2022-11-04T07:54:43.419Z,9.83
2022-11-04T07:57:46.862Z,10.02
2022-11-04T08:00:50.374Z,10.03
2022-11-04T08:03:53.794Z,10.32
2022-11-04T08:07:05.150Z,10.71
2022-11-04T08:10:08.883Z,10.44
2022-11-04T08:13:11.437Z,9.98
2022-11-04T08:16:22.210Z,10.61
2022-11-04T08:19:26.748Z,11.18
2022-11-04T08:22:34.620Z,11.84
2022-11-04T08:25:42.801Z,11.80
2022-11-04T08:28:52.339Z,11.94
2022-11-04T08:31:55.675Z,11.67
2022-11-04T08:35:00.747Z,11.87
2022-11-04T08:38:06.952Z,12.28
2022-11-04T08:41:13.303Z,12.42
2022-11-04T08:44:16.009Z,12.82
2022-11-04T08:47:18.834Z,12.99
2022-11-04T08:50:27.655Z,12.45
2022-11-04T08:53:33.211Z,12.01
2022-11-04T08:56:41.117Z,12.69
2022-11-04T09:00:03.538Z,12.56
2022-11-04T09:03:26.124Z,12.28
2022-11-04T09:06:36.908Z,13.26
2022-11-04T09:09:43.367Z,13.13
2022-11-04T09:12:45.642Z,13.39
2022-11-04T09:15:49.152Z,13.70
2022-11-04T09:18:52.739Z,13.30
2022-11-04T09:21:55.019Z,13.74
2022-11-04T09:24:57.455Z,14.16
2022-11-04T09:28:03.199Z,13.64
2022-11-04T09:31:11.511Z,13.39
2022-11-04T09:34:22.653Z,13.55
2022-11-04T09:37:24.870Z,14.04
2022-11-04T09:40:28.084Z,14.57
2022-11-04T09:44:13.913Z,15.00
2022-11-04T09:47:21.618Z,14.98
2022-11-04T09:50:27.137Z,15.08
2022-11-04T09:53:47.418Z,15.00
2022-11-04T09:56:55.133Z,14.91
2022-11-04T10:00:06.351Z,14.86
2022-11-04T10:03:53.440Z,14.67
2022-11-04T10:07:21.780Z,14.40
2022-11-04T10:10:53.301Z,14.53
2022-11-04T10:14:11.799Z,14.22
2022-11-04T10:17:50.658Z,14.12
2022-11-04T10:21:00.419Z,14.02
2022-11-04T10:24:20.038Z,13.77
2022-11-04T10:27:36.758Z,13.50
2022-11-04T10:30:49.516Z,13.73
2022-11-04T10:34:00.130Z,13.84
2022-11-04T10:37:03.164Z,13.98
2022-11-04T10:40:26.847Z,14.11
2022-11-04T10:43:36.960Z,14.19
2022-11-04T10:46:54.987Z,14.26
2022-11-04T10:50:30.485Z,14.57
2022-11-04T10:53:34.421Z,14.65
2022-11-04T10:56:47.558Z,14.42
2022-11-04T11:00:00.390Z,14.40
2022-11-04T11:03:02.832Z,14.65
2022-11-04T11:06:15.488Z,14.81
2022-11-04T11:09:25.765Z,14.56
2022-11-04T11:12:50.732Z,14.40
2022-11-04T11:16:09.392Z,14.32
2022-11-04T11:19:13.500Z,14.46
2022-11-04T11:22:36.265Z,14.49
2022-11-04T11:25:50.581Z,14.65
2022-11-04T11:29:04.399Z,14.76
2022-11-04T11:32:21.482Z,14.91
2022-11-04T11:35:28.388Z,15.08
2022-11-04T11:38:36.142Z,15.34
2022-11-04T11:41:59.891Z,15.49
2022-11-04T11:45:08.571Z,15.37
2022-11-04T11:48:29.826Z,15.17
2022-11-04T11:51:38.311Z,15.12
2022-11-04T11:54:43.640Z,15.24
2022-11-04T12:01:37.820Z,15.63
2022-11-04T12:11:52.163Z,15.41
2022-11-04T12:15:27.046Z,15.35
2022-11-04T12:18:52.339Z,15.44
2022-11-04T12:22:01.719Z,15.55
2022-11-04T12:25:21.309Z,15.59
2022-11-04T12:28:26.189Z,15.66
2022-11-04T12:31:37.473Z,15.70
2022-11-04T12:35:03.336Z,15.70
2022-11-04T12:38:35.697Z,15.99
2022-11-04T12:42:33.105Z,15.96
2022-11-04T12:45:52.034Z,15.86
2022-11-04T12:49:18.569Z,15.93
2022-11-04T12:52:51.818Z,15.88
2022-11-04T12:56:10.028Z,15.55
2022-11-04T12:59:14.941Z,15.35
2022-11-04T13:02:42.285Z,15.32
2022-11-04T13:05:53.909Z,15.31
2022-11-04T13:09:02.665Z,15.32
2022-11-04T13:12:16.673Z,15.49
2022-11-04T13:15:23.067Z,15.48
2022-11-04T13:18:30.655Z,15.55
2022-11-04T13:21:36.608Z,15.32
2022-11-04T13:24:43.687Z,15.34
2022-11-04T13:27:48.139Z,15.31
2022-11-04T13:30:59.059Z,15.39
2022-11-04T13:34:50.947Z,15.42
2022-11-04T13:38:02.272Z,15.34
2022-11-04T13:41:39.958Z,15.32
2022-11-04T13:44:48.745Z,15.30
2022-11-04T13:47:54.389Z,15.27
2022-11-04T13:51:06.867Z,15.34
2022-11-04T13:54:26.213Z,15.32
2022-11-04T13:57:30.300Z,15.38
2022-11-04T14:00:33.780Z,15.37
2022-11-04T14:03:35.938Z,15.38
2022-11-04T14:07:04.310Z,15.35
2022-11-04T14:10:45.193Z,15.42
2022-11-04T14:14:02.302Z,15.38
2022-11-04T14:17:07.411Z,15.41
2022-11-04T14:20:23.143Z,15.47
2022-11-04T14:23:27.133Z,15.44
2022-11-04T14:26:40.442Z,15.48
2022-11-04T14:29:50.280Z,15.55
2022-11-04T14:32:57.432Z,15.51
2022-11-04T14:36:35.194Z,15.51
2022-11-04T14:39:40.338Z,15.52
2022-11-04T14:42:50.144Z,15.57
2022-11-04T14:45:55.310Z,15.61
2022-11-04T14:49:01.186Z,15.61
2022-11-04T14:52:03.573Z,15.65
2022-11-04T14:55:11.554Z,15.69
2022-11-04T14:58:23.786Z,15.62
2022-11-04T15:01:34.113Z,15.63
2022-11-04T15:04:37.058Z,15.58
2022-11-04T15:07:40.617Z,15.61
2022-11-04T15:10:42.766Z,15.63
2022-11-04T15:13:49.344Z,15.57
2022-11-04T15:16:57.927Z,15.57
2022-11-04T15:20:01.964Z,15.61
2022-11-04T15:23:06.846Z,15.54
2022-11-04T15:26:29.446Z,15.59
2022-11-04T15:29:32.462Z,15.55
2022-11-04T15:32:34.694Z,15.62
2022-11-04T15:35:43.426Z,15.65
2022-11-04T15:38:50.408Z,15.57
2022-11-04T15:42:16.193Z,15.57
2022-11-04T15:45:18.384Z,15.47
2022-11-04T15:48:37.737Z,15.41
2022-11-04T15:51:41.719Z,15.35
2022-11-04T15:54:48.424Z,15.37
2022-11-04T15:57:51.735Z,15.31
2022-11-04T16:00:55.794Z,15.28
2022-11-04T16:04:00.318Z,15.34
2022-11-04T16:07:23.390Z,15.31
2022-11-04T16:10:36.653Z,15.28
2022-11-04T16:13:39.346Z,15.28
2022-11-04T16:16:47.901Z,15.30
2022-11-04T16:19:56.031Z,15.37
2022-11-04T16:23:02.914Z,15.39
2022-11-04T16:26:07.035Z,15.39
2022-11-04T16:29:14.940Z,15.47
2022-11-04T16:32:19.902Z,15.47
2022-11-04T16:35:27.760Z,15.47
2022-11-04T16:38:29.894Z,15.48
2022-11-04T16:41:36.511Z,15.42
2022-11-04T16:44:39.382Z,15.48
2022-11-04T16:47:42.065Z,15.48
2022-11-04T16:50:45.187Z,15.49
2022-11-04T16:53:54.530Z,15.41
2022-11-04T16:56:56.918Z,15.39
2022-11-04T16:59:59.162Z,15.42
2022-11-04T17:03:11.488Z,15.37
2022-11-04T17:06:15.238Z,15.35
2022-11-04T17:09:20.520Z,15.31
2022-11-04T17:12:22.879Z,15.34
2022-11-04T17:15:25.924Z,15.35
2022-11-04T17:18:31.166Z,15.32
2022-11-04T17:21:33.892Z,15.28
2022-11-04T17:24:36.234Z,15.24
2022-11-04T17:27:41.127Z,15.23
2022-11-04T17:30:44.429Z,15.27
2022-11-04T17:33:46.719Z,15.21
2022-11-04T17:36:48.896Z,15.24
2022-11-04T17:39:53.913Z,15.30
2022-11-04T17:43:15.314Z,15.18
2022-11-04T17:46:41.726Z,15.17
2022-11-04T17:49:44.048Z,15.12
2022-11-04T17:52:49.533Z,15.10
2022-11-04T17:55:51.778Z,15.12
2022-11-04T17:58:53.949Z,15.07
2022-11-04T18:01:56.334Z,15.16
2022-11-04T18:04:58.686Z,15.14
2022-11-04T18:08:01.932Z,15.08
2022-11-04T18:11:07.201Z,15.10
2022-11-04T18:14:15.359Z,15.18
2022-11-04T18:17:18.999Z,15.18
2022-11-04T18:20:21.530Z,15.12
2022-11-04T18:23:24.796Z,15.10
2022-11-04T18:26:27.163Z,15.08
2022-11-04T18:29:29.408Z,15.11
2022-11-04T18:32:31.619Z,15.11
2022-11-04T18:35:35.319Z,15.10
2022-11-04T18:38:37.509Z,15.17
2022-11-04T18:41:39.877Z,15.03
2022-11-04T18:44:42.081Z,15.00
2022-11-04T18:47:47.969Z,14.97
2022-11-04T18:50:50.544Z,14.79
2022-11-04T18:53:53.097Z,14.69
2022-11-04T18:56:55.285Z,14.62
2022-11-04T18:59:57.430Z,14.75
2022-11-04T19:02:59.693Z,14.66
2022-11-04T19:06:06.949Z,14.72
2022-11-04T19:09:44.829Z,14.72
2022-11-04T19:12:54.046Z,14.65
2022-11-04T19:16:03.655Z,14.57
2022-11-04T19:19:07.966Z,14.60
2022-11-04T19:22:11.085Z,14.53
2022-11-04T19:25:13.667Z,14.59
2022-11-04T19:31:38.702Z,14.29
2022-11-04T19:34:41.099Z,14.28
2022-11-04T19:37:43.238Z,14.32
2022-11-04T19:40:49.457Z,14.40
2022-11-04T19:43:54.149Z,14.32
2022-11-04T19:46:56.334Z,14.25
2022-11-04T19:49:58.485Z,14.19
2022-11-04T19:53:00.673Z,14.21
2022-11-04T19:56:02.858Z,14.12
2022-11-04T19:59:06.773Z,14.16
2022-11-04T20:02:13.552Z,14.14
2022-11-04T20:05:16.276Z,14.05
2022-11-04T20:08:19.394Z,14.00
2022-11-04T20:11:23.033Z,13.95
2022-11-04T20:14:26.677Z,13.89
2022-11-04T20:17:31.379Z,13.82
2022-11-04T20:20:33.539Z,13.78
2022-11-04T20:23:35.744Z,13.82
2022-11-04T20:26:43.085Z,13.79
2022-11-04T20:29:45.337Z,13.82
2022-11-04T20:32:47.526Z,13.78
2022-11-04T20:35:49.714Z,13.74
2022-11-04T20:38:59.541Z,13.64
2022-11-04T20:42:01.709Z,13.60
2022-11-04T20:45:04.171Z,13.58
2022-11-04T20:48:06.502Z,13.54
2022-11-04T20:51:11.588Z,13.61
2022-11-04T20:54:14.544Z,13.57
2022-11-04T20:57:16.968Z,13.48
2022-11-04T21:00:23.371Z,13.46
2022-11-04T21:03:25.502Z,13.43
2022-11-04T21:06:28.907Z,13.43
2022-11-04T21:09:31.200Z,13.51
2022-11-04T21:12:33.374Z,13.57
2022-11-04T21:15:41.039Z,13.60
2022-11-04T21:18:43.713Z,13.57
2022-11-04T21:21:47.066Z,13.60
2022-11-04T21:24:49.311Z,13.64
2022-11-04T21:27:52.312Z,13.63
2022-11-04T21:30:54.847Z,13.55
2022-11-04T21:33:57.629Z,13.57
2022-11-04T21:36:59.827Z,13.63
2022-11-04T21:40:01.952Z,13.63
2022-11-04T21:43:04.182Z,13.67
2022-11-04T21:46:08.833Z,13.63
2022-11-04T21:49:12.422Z,13.57
2022-11-04T21:52:14.565Z,13.58
2022-11-04T21:55:24.234Z,13.60
2022-11-04T21:58:26.375Z,13.63
2022-11-04T22:01:30.289Z,13.58
2022-11-04T22:04:32.574Z,13.51
2022-11-04T22:07:53.995Z,13.53
2022-11-04T22:10:56.802Z,13.57
2022-11-04T22:14:01.426Z,13.46
2022-11-04T22:17:10.176Z,13.51
2022-11-04T22:20:12.358Z,13.46
2022-11-04T22:23:14.494Z,13.40
2022-11-04T22:26:28.427Z,13.40
2022-11-04T22:29:30.840Z,13.51
2022-11-04T22:32:33.110Z,13.36
2022-11-04T22:35:35.255Z,13.34
2022-11-04T22:38:40.624Z,13.32
2022-11-04T22:41:43.444Z,13.32
2022-11-04T22:44:45.635Z,13.32
2022-11-04T22:47:47.863Z,13.32
2022-11-04T22:50:58.574Z,13.30
2022-11-04T22:54:07.698Z,13.22
2022-11-04T22:57:10.620Z,13.13
2022-11-04T23:00:13.505Z,13.20
2022-11-04T23:03:16.375Z,13.04
2022-11-04T23:06:19.105Z,12.99
2022-11-04T23:09:21.358Z,12.82
2022-11-04T23:12:42.347Z,12.73
2022-11-04T23:16:02.953Z,12.58
2022-11-04T23:19:05.093Z,12.55
2022-11-04T23:22:26.497Z,12.42
2022-11-04T23:25:28.705Z,12.31
2022-11-04T23:28:49.427Z,12.35
2022-11-04T23:31:51.594Z,12.21
2022-11-04T23:35:12.251Z,12.11
2022-11-04T23:38:14.665Z,12.14
2022-11-04T23:41:35.171Z,12.07
2022-11-04T23:44:55.543Z,11.95
2022-11-04T23:48:16.235Z,11.83
2022-11-04T23:51:36.963Z,11.70
2022-11-04T23:54:57.643Z,11.63
2022-11-04T23:58:18.372Z,11.50
